Time;durP1;ratioP1;P1;durP2;ratioP2;P2;SDS_P1;SDS_P2;PMS_P1;PMS_P2;Temp;Humidity;BMP_temperature;BMP_pressure;BME280_temperature;BME280_humidity;BME280_pressure;Samples;Min_cycle;Max_cycle;Signal;HPM_P1;HPM_P2
2022/01/10 00:01:32;;;;;;;19.27;11.27;;;;;;;;;;5076015;28;20198;-87
2022/01/10 00:04:02;;;;;;;24.30;11.03;;;;;;;;;;5075894;28;20245;-87
2022/01/10 00:06:30;;;;;;;18.97;11.10;;;;;;;;;;5075730;28;20243;-87
2022/01/10 00:08:59;;;;;;;15.73;7.00;;;;;;;;;;5075933;28;20205;-88
2022/01/10 00:11:27;;;;;;;19.93;9.37;;;;;;;;;;5075502;28;20205;-87
2022/01/10 00:13:55;;;;;;;23.00;9.80;;;;;;;;;;5075737;28;20208;-87
2022/01/10 00:16:25;;;;;;;11.03;6.60;;;;;;;;;;5075419;28;20230;-88
2022/01/10 00:18:54;;;;;;;18.43;10.53;;;;;;;;;;5075392;28;20287;-88
2022/01/10 00:21:23;;;;;;;11.00;6.17;;;;;;;;;;5075567;28;20209;-88
2022/01/10 00:23:52;;;;;;;11.80;5.53;;;;;;;;;;5075469;28;20283;-88
2022/01/10 00:26:20;;;;;;;20.10;9.50;;;;;;;;;;5074160;28;20206;-87
2022/01/10 00:28:49;;;;;;;14.03;9.13;;;;;;;;;;5075485;28;20204;-88
2022/01/10 00:31:17;;;;;;;19.93;10.03;;;;;;;;;;5075590;28;20228;-88
2022/01/10 00:33:46;;;;;;;16.87;10.13;;;;;;;;;;5075420;28;20275;-87
2022/01/10 00:36:15;;;;;;;20.53;8.80;;;;;;;;;;5075064;28;20228;-88
2022/01/10 00:38:45;;;;;;;8.80;6.27;;;;;;;;;;5074944;28;20226;-88
2022/01/10 00:41:13;;;;;;;21.97;4.70;;;;;;;;;;5074888;28;20297;-88
2022/01/10 00:43:46;;;;;;;4.93;3.40;;;;;;;;;;5075003;28;20198;-87
2022/01/10 00:46:20;;;;;;;5.17;3.67;;;;;;;;;;5075041;28;20225;-88
2022/01/10 00:48:48;;;;;;;21.47;8.60;;;;;;;;;;5074666;28;20248;-87
2022/01/10 00:51:17;;;;;;;13.87;8.87;;;;;;;;;;5074504;28;20202;-88
2022/01/10 00:53:49;;;;;;;14.93;10.13;;;;;;;;;;5075070;28;20226;-88
2022/01/10 00:56:18;;;;;;;15.00;10.13;;;;;;;;;;5074856;28;20224;-88
2022/01/10 00:58:46;;;;;;;21.87;10.17;;;;;;;;;;5074453;28;20289;-88
2022/01/10 01:01:15;;;;;;;16.83;10.30;;;;;;;;;;5074811;28;20193;-88
2022/01/10 01:03:44;;;;;;;20.20;10.67;;;;;;;;;;5074515;28;20256;-87
2022/01/10 01:06:13;;;;;;;22.30;11.27;;;;;;;;;;5074381;28;20236;-87
2022/01/10 01:08:43;;;;;;;17.77;10.43;;;;;;;;;;5074694;28;20205;-88
2022/01/10 01:14:04;;;;;;;18.20;8.67;;;;;;;;;;5067699;28;20209;-87
2022/01/10 01:16:45;;;;;;;22.97;10.50;;;;;;;;;;5074423;28;20263;-87
2022/01/10 01:24:48;;;;;;;5.53;2.87;;;;;;;;;;5074360;28;20194;-87
2022/01/10 01:27:18;;;;;;;18.10;10.53;;;;;;;;;;5074345;28;20282;-88
2022/01/10 01:29:46;;;;;;;5.77;5.13;;;;;;;;;;5074371;28;20225;-87
2022/01/10 01:32:15;;;;;;;9.87;4.77;;;;;;;;;;5074048;28;20252;-87
2022/01/10 01:34:43;;;;;;;11.97;8.13;;;;;;;;;;5074167;28;20233;-88
2022/01/10 01:37:12;;;;;;;16.17;7.47;;;;;;;;;;5074087;28;20212;-88
2022/01/10 01:39:41;;;;;;;14.30;8.40;;;;;;;;;;5074071;28;20279;-87
2022/01/10 01:42:31;;;;;;;17.10;10.20;;;;;;;;;;5074271;28;20261;-88
2022/01/10 01:45:01;;;;;;;11.40;3.83;;;;;;;;;;5074187;28;20206;-88
2022/01/10 01:47:31;;;;;;;6.23;4.57;;;;;;;;;;5073815;28;20194;-88
2022/01/10 01:49:59;;;;;;;19.47;10.17;;;;;;;;;;5074183;28;20197;-88
2022/01/10 01:52:28;;;;;;;2.60;2.40;;;;;;;;;;5074337;28;20201;-87
2022/01/10 01:54:56;;;;;;;14.17;9.23;;;;;;;;;;5074289;28;20200;-88
2022/01/10 01:57:25;;;;;;;21.77;10.07;;;;;;;;;;5073887;28;20233;-88
2022/01/10 01:59:53;;;;;;;20.47;10.70;;;;;;;;;;5074037;28;20270;-88
2022/01/10 02:02:23;;;;;;;9.60;8.07;;;;;;;;;;5074065;28;20240;-88
2022/01/10 02:04:52;;;;;;;24.33;10.47;;;;;;;;;;5073988;28;20223;-88
2022/01/10 02:07:20;;;;;;;14.20;9.23;;;;;;;;;;5073713;28;20201;-87
2022/01/10 02:09:48;;;;;;;15.73;9.33;;;;;;;;;;5073930;28;20205;-87
2022/01/10 02:12:17;;;;;;;24.67;9.20;;;;;;;;;;5073950;28;20225;-88
2022/01/10 02:14:46;;;;;;;15.57;8.47;;;;;;;;;;5074160;28;20206;-88
2022/01/10 02:17:18;;;;;;;14.87;7.13;;;;;;;;;;5073664;28;20210;-87
2022/01/10 02:19:58;;;;;;;15.77;6.03;;;;;;;;;;5073889;28;20221;-88
2022/01/10 02:22:27;;;;;;;12.23;7.97;;;;;;;;;;5073744;28;20217;-87
2022/01/10 02:24:55;;;;;;;16.00;9.07;;;;;;;;;;5073622;28;20244;-88
2022/01/10 02:27:24;;;;;;;14.30;8.57;;;;;;;;;;5073898;28;20194;-87
2022/01/10 02:29:53;;;;;;;14.20;7.00;;;;;;;;;;5073627;28;20201;-88
2022/01/10 02:32:22;;;;;;;4.77;3.93;;;;;;;;;;5073149;28;20225;-87
2022/01/10 02:34:51;;;;;;;1.57;1.57;;;;;;;;;;5073987;28;20256;-87
2022/01/10 02:37:34;;;;;;;2.77;2.57;;;;;;;;;;5073682;28;20202;-88
2022/01/10 02:40:06;;;;;;;16.27;6.97;;;;;;;;;;5073615;28;20342;-88
2022/01/10 02:42:34;;;;;;;9.43;7.23;;;;;;;;;;5073164;28;20239;-88
2022/01/10 02:45:03;;;;;;;11.97;7.53;;;;;;;;;;5073451;28;20233;-88
2022/01/10 02:47:31;;;;;;;10.30;6.80;;;;;;;;;;5073233;28;20206;-88
2022/01/10 02:50:00;;;;;;;13.97;3.63;;;;;;;;;;5076352;28;20182;-88
2022/01/10 02:52:28;;;;;;;11.57;6.70;;;;;;;;;;5077464;28;20240;-88
2022/01/10 02:55:00;;;;;;;10.43;6.10;;;;;;;;;;5077123;28;20255;-88
2022/01/10 02:57:28;;;;;;;7.70;2.70;;;;;;;;;;5077047;28;20232;-87
2022/01/10 02:59:57;;;;;;;15.67;7.47;;;;;;;;;;5077044;28;20241;-87
2022/01/10 03:02:30;;;;;;;13.17;7.50;;;;;;;;;;5076718;28;20226;-87
2022/01/10 03:04:58;;;;;;;10.57;6.93;;;;;;;;;;5077002;28;20193;-87
2022/01/10 03:07:28;;;;;;;3.53;2.90;;;;;;;;;;5076923;28;20263;-88
2022/01/10 03:09:57;;;;;;;5.73;3.70;;;;;;;;;;5076883;28;20201;-88
2022/01/10 03:12:28;;;;;;;11.73;7.23;;;;;;;;;;5076867;28;20225;-88
2022/01/10 03:14:56;;;;;;;25.10;7.90;;;;;;;;;;5076886;28;20221;-88
2022/01/10 03:17:25;;;;;;;14.13;8.70;;;;;;;;;;5076904;28;20262;-88
2022/01/10 03:19:53;;;;;;;15.87;7.10;;;;;;;;;;5076708;28;20287;-87
2022/01/10 03:22:22;;;;;;;14.80;9.17;;;;;;;;;;5076255;28;20236;-88
2022/01/10 03:24:50;;;;;;;16.70;8.73;;;;;;;;;;5076644;28;20300;-87
2022/01/10 03:27:20;;;;;;;14.47;7.63;;;;;;;;;;5076572;28;20209;-88
2022/01/10 03:29:48;;;;;;;12.50;8.73;;;;;;;;;;5076441;28;20206;-88
2022/01/10 03:32:17;;;;;;;18.07;10.00;;;;;;;;;;5074235;28;20206;-87
2022/01/10 03:34:45;;;;;;;21.53;10.07;;;;;;;;;;5076159;28;20327;-88
2022/01/10 03:37:14;;;;;;;16.63;8.53;;;;;;;;;;5076529;28;20212;-87
2022/01/10 03:39:42;;;;;;;12.37;9.07;;;;;;;;;;5076118;28;20249;-87
2022/01/10 03:42:12;;;;;;;17.10;9.50;;;;;;;;;;5076387;28;20201;-88
2022/01/10 03:44:42;;;;;;;18.00;10.13;;;;;;;;;;5075973;28;20293;-87
2022/01/10 03:47:11;;;;;;;13.20;7.87;;;;;;;;;;5076496;28;20202;-88
2022/01/10 03:49:39;;;;;;;17.83;7.77;;;;;;;;;;5076170;28;20237;-88
2022/01/10 03:52:08;;;;;;;13.37;8.07;;;;;;;;;;5076346;28;20202;-88
2022/01/10 03:54:36;;;;;;;16.63;9.07;;;;;;;;;;5076276;28;20198;-88
2022/01/10 03:57:05;;;;;;;22.53;8.07;;;;;;;;;;5076287;28;20205;-88
2022/01/10 03:59:34;;;;;;;11.23;6.77;;;;;;;;;;5075519;28;20256;-88
2022/01/10 04:02:04;;;;;;;12.27;7.67;;;;;;;;;;5076043;28;20264;-88
2022/01/10 04:04:36;;;;;;;11.03;5.90;;;;;;;;;;5075997;28;20229;-87
2022/01/10 04:07:04;;;;;;;7.27;6.50;;;;;;;;;;5075788;28;20231;-88
2022/01/10 04:09:32;;;;;;;17.03;8.10;;;;;;;;;;5075696;28;20222;-88
2022/01/10 04:12:01;;;;;;;9.93;7.43;;;;;;;;;;5075794;28;20202;-88
2022/01/10 04:14:29;;;;;;;9.17;5.17;;;;;;;;;;5075230;28;20295;-88
2022/01/10 04:16:58;;;;;;;15.97;6.77;;;;;;;;;;5075895;28;20206;-88
2022/01/10 04:19:28;;;;;;;3.70;3.40;;;;;;;;;;5075389;28;20232;-88
2022/01/10 04:21:56;;;;;;;13.93;7.07;;;;;;;;;;5075602;28;20201;-87
2022/01/10 04:24:24;;;;;;;12.90;3.80;;;;;;;;;;5075329;28;20232;-88
2022/01/10 04:26:53;;;;;;;14.70;5.80;;;;;;;;;;5075315;28;20228;-88
2022/01/10 04:29:21;;;;;;;1.03;1.03;;;;;;;;;;5075295;28;20233;-88
2022/01/10 04:31:49;;;;;;;4.23;3.07;;;;;;;;;;5075411;28;20297;-87
2022/01/10 04:34:18;;;;;;;0.80;0.80;;;;;;;;;;5075290;28;20228;-88
2022/01/10 04:36:48;;;;;;;2.23;2.20;;;;;;;;;;5075174;28;20626;-88
2022/01/10 04:39:16;;;;;;;1.10;1.10;;;;;;;;;;5075161;28;20267;-88
2022/01/10 04:41:44;;;;;;;3.40;2.23;;;;;;;;;;5075098;28;20213;-88
2022/01/10 04:44:13;;;;;;;1.80;1.70;;;;;;;;;;5074970;28;20287;-88
2022/01/10 04:46:41;;;;;;;21.30;7.33;;;;;;;;;;5075095;28;20251;-88
2022/01/10 04:49:17;;;;;;;12.73;7.77;;;;;;;;;;5074545;28;20265;-88
2022/01/10 04:51:47;;;;;;;14.87;8.20;;;;;;;;;;5074893;28;20208;-88
2022/01/10 04:54:15;;;;;;;10.70;6.93;;;;;;;;;;5074295;28;20299;-88
2022/01/10 04:56:44;;;;;;;20.37;8.60;;;;;;;;;;5075188;28;20240;-87
2022/01/10 04:59:12;;;;;;;20.57;8.93;;;;;;;;;;5074494;28;20233;-88
2022/01/10 05:01:41;;;;;;;18.97;8.40;;;;;;;;;;5074948;28;20229;-88
2022/01/10 05:04:10;;;;;;;15.00;9.60;;;;;;;;;;5074746;28;20228;-87
2022/01/10 05:06:39;;;;;;;19.57;9.13;;;;;;;;;;5074767;28;20203;-87
2022/01/10 05:09:09;;;;;;;1.33;1.33;;;;;;;;;;5074454;28;20235;-88
2022/01/10 05:11:39;;;;;;;17.97;8.73;;;;;;;;;;5074214;28;20228;-88
2022/01/10 05:14:08;;;;;;;16.20;5.63;;;;;;;;;;5075054;28;20218;-88
2022/01/10 05:16:40;;;;;;;10.93;6.77;;;;;;;;;;5074614;28;20259;-87
2022/01/10 05:19:10;;;;;;;0.80;0.80;;;;;;;;;;5074695;28;20225;-88
2022/01/10 05:21:39;;;;;;;5.17;4.40;;;;;;;;;;5074170;28;20263;-87
2022/01/10 05:24:09;;;;;;;13.33;6.07;;;;;;;;;;5074773;28;20297;-88
2022/01/10 05:26:38;;;;;;;10.33;8.50;;;;;;;;;;5074526;28;20232;-88
2022/01/10 05:29:06;;;;;;;16.40;7.60;;;;;;;;;;5074895;28;20251;-88
2022/01/10 05:31:34;;;;;;;16.10;7.33;;;;;;;;;;5074294;28;20248;-88
2022/01/10 05:34:03;;;;;;;12.37;7.33;;;;;;;;;;5074246;28;20215;-88
2022/01/10 05:36:32;;;;;;;16.00;7.10;;;;;;;;;;5074068;28;20205;-88
2022/01/10 05:39:00;;;;;;;2.97;2.70;;;;;;;;;;5074123;28;20228;-88
2022/01/10 05:41:30;;;;;;;6.13;3.57;;;;;;;;;;5073917;28;20342;-88
2022/01/10 05:43:58;;;;;;;1.37;1.37;;;;;;;;;;5074669;28;20225;-88
2022/01/10 05:46:27;;;;;;;0.97;0.97;;;;;;;;;;5074191;28;20229;-88
2022/01/10 05:49:00;;;;;;;4.03;3.43;;;;;;;;;;5074265;28;20238;-88
2022/01/10 05:51:33;;;;;;;5.90;1.97;;;;;;;;;;5074526;28;20227;-88
2022/01/10 05:54:01;;;;;;;4.00;3.60;;;;;;;;;;5074072;28;20259;-88
2022/01/10 05:56:31;;;;;;;11.47;4.87;;;;;;;;;;5074418;28;20196;-88
2022/01/10 05:59:00;;;;;;;3.57;3.27;;;;;;;;;;5074188;28;20241;-88
2022/01/10 06:01:28;;;;;;;7.63;5.03;;;;;;;;;;5073638;28;20251;-88
2022/01/10 06:03:57;;;;;;;5.57;2.93;;;;;;;;;;5073758;28;20241;-88
2022/01/10 06:06:25;;;;;;;13.47;6.20;;;;;;;;;;5073782;28;20201;-88
2022/01/10 06:08:54;;;;;;;12.20;7.33;;;;;;;;;;5073756;28;20206;-88
2022/01/10 06:11:22;;;;;;;8.67;6.10;;;;;;;;;;5073606;28;20225;-87
2022/01/10 06:13:52;;;;;;;16.47;7.57;;;;;;;;;;5073540;28;20244;-88
2022/01/10 06:16:20;;;;;;;6.37;4.37;;;;;;;;;;5073596;28;20222;-88
2022/01/10 06:18:48;;;;;;;1.17;1.17;;;;;;;;;;5073647;28;20205;-88
2022/01/10 06:21:17;;;;;;;6.80;4.10;;;;;;;;;;5073621;28;20268;-88
2022/01/10 06:23:45;;;;;;;1.60;1.57;;;;;;;;;;5076047;28;20198;-87
2022/01/10 06:26:14;;;;;;;1.00;1.00;;;;;;;;;;5077313;28;20210;-88
2022/01/10 06:28:42;;;;;;;0.90;0.90;;;;;;;;;;5077314;28;20209;-88
2022/01/10 06:31:13;;;;;;;1.27;1.17;;;;;;;;;;5078048;28;20194;-87
2022/01/10 06:33:42;;;;;;;2.53;2.33;;;;;;;;;;5078038;28;20201;-88
2022/01/10 06:36:10;;;;;;;0.90;0.90;;;;;;;;;;5077969;28;20205;-88
2022/01/10 06:38:39;;;;;;;0.70;0.70;;;;;;;;;;5078127;28;20256;-87
2022/01/10 06:41:07;;;;;;;2.23;2.03;;;;;;;;;;5077484;28;20217;-88
2022/01/10 06:43:37;;;;;;;3.87;1.97;;;;;;;;;;5077979;28;20210;-88
2022/01/10 06:46:06;;;;;;;1.20;1.20;;;;;;;;;;5077423;28;20209;-87
2022/01/10 06:48:36;;;;;;;0.70;0.70;;;;;;;;;;5077618;28;20245;-87
2022/01/10 06:51:04;;;;;;;0.90;0.90;;;;;;;;;;5077251;28;20263;-86
2022/01/10 06:53:32;;;;;;;1.10;1.10;;;;;;;;;;5076956;28;20251;-86
2022/01/10 06:56:01;;;;;;;1.00;1.00;;;;;;;;;;5077193;28;20212;-86
2022/01/10 06:58:29;;;;;;;6.30;1.97;;;;;;;;;;5077658;28;20259;-87
2022/01/10 07:00:58;;;;;;;13.37;3.23;;;;;;;;;;5077351;28;20247;-86
2022/01/10 07:03:26;;;;;;;5.20;2.07;;;;;;;;;;5077228;28;20309;-86
2022/01/10 07:05:56;;;;;;;3.27;2.90;;;;;;;;;;5077161;28;20206;-86
2022/01/10 07:08:25;;;;;;;1.00;1.00;;;;;;;;;;5076891;28;20209;-86
2022/01/10 07:10:54;;;;;;;2.40;2.30;;;;;;;;;;5076907;28;20202;-87
2022/01/10 07:13:24;;;;;;;3.13;2.93;;;;;;;;;;5076527;28;20197;-86
2022/01/10 07:15:52;;;;;;;5.57;2.40;;;;;;;;;;5077018;28;20212;-87
2022/01/10 07:25:37;;;;;;;1.97;1.87;;;;;;;;;;4975926;28;20172;-86
2022/01/10 07:29:05;;;;;;;;;;;;;;;;;;;;;
2022/01/10 08:03:59;;;;;;;0.87;0.87;;;;;;;;;;4847912;29;20262;-90
2022/01/10 08:06:31;;;;;;;0.80;0.80;;;;;;;;;;4846991;29;20220;-89
2022/01/10 10:27:46;;;;;;;13.27;8.97;;;;;;;;;;4963289;28;20257;-83
2022/01/10 10:30:43;;;;;;;9.43;3.50;;;;;;;;;;4968302;28;20268;-82
2022/01/10 10:33:23;;;;;;;17.70;12.30;;;;;;;;;;4974745;28;20236;-86
2022/01/10 10:35:59;;;;;;;9.67;6.97;;;;;;;;;;4973953;28;20262;-87
2022/01/10 10:38:28;;;;;;;9.23;7.83;;;;;;;;;;4969904;28;20213;-82
2022/01/10 10:41:01;;;;;;;12.23;9.80;;;;;;;;;;4969294;28;20217;-82
2022/01/10 10:43:35;;;;;;;11.37;8.93;;;;;;;;;;4968628;28;20217;-82
2022/01/10 10:46:04;;;;;;;5.93;4.77;;;;;;;;;;4969506;28;20216;-83
2022/01/10 10:48:56;;;;;;;;;;;;;;;;;;;;;
2022/01/10 10:51:39;;;;;;;4.97;4.47;;;;;;;;;;4967303;28;20292;-81
2022/01/10 10:54:10;;;;;;;16.77;12.27;;;;;;;;;;4968605;28;20208;-82
2022/01/10 10:56:42;;;;;;;13.63;7.87;;;;;;;;;;4968783;28;20205;-82
2022/01/10 10:59:12;;;;;;;9.90;8.00;;;;;;;;;;4971235;28;20202;-83
2022/01/10 11:01:53;;;;;;;15.33;11.70;;;;;;;;;;4971176;28;20229;-84
2022/01/10 11:04:35;;;;;;;18.07;14.60;;;;;;;;;;4968243;28;20229;-83
2022/01/10 11:07:05;;;;;;;19.03;14.67;;;;;;;;;;4972171;28;20218;-83
2022/01/10 11:10:02;;;;;;;19.83;12.73;;;;;;;;;;4965036;28;20214;-84
2022/01/10 11:12:34;;;;;;;22.27;14.13;;;;;;;;;;4981495;28;20213;-82
2022/01/10 11:15:13;;;;;;;20.37;13.80;;;;;;;;;;4971485;28;20320;-82
2022/01/10 11:17:55;;;;;;;9.03;8.03;;;;;;;;;;4974122;28;20279;-83
2022/01/10 11:20:41;;;;;;;15.87;12.97;;;;;;;;;;4972679;28;20221;-84
2022/01/10 11:23:50;;;;;;;19.87;14.17;;;;;;;;;;4965300;28;20225;-84
2022/01/10 11:26:43;;;;;;;3.97;3.70;;;;;;;;;;4972320;28;20240;-82
2022/01/10 11:29:30;;;;;;;19.97;12.20;;;;;;;;;;4975300;28;20303;-82
2022/01/10 11:32:17;;;;;;;18.50;13.83;;;;;;;;;;4974674;28;20301;-85
2022/01/10 11:35:11;;;;;;;1.10;1.10;;;;;;;;;;4964318;28;20205;-84
2022/01/10 11:37:48;;;;;;;7.60;5.50;;;;;;;;;;4972485;28;20272;-82
2022/01/10 11:40:21;;;;;;;5.90;3.80;;;;;;;;;;4968078;28;20217;-83
2022/01/10 11:42:59;;;;;;;0.70;0.70;;;;;;;;;;4970078;28;20238;-86
2022/01/10 16:33:26;;;;;;;31.00;20.63;;;;;;;;;;4897744;29;20243;-89
2022/01/10 16:35:55;;;;;;;23.93;18.13;;;;;;;;;;4903032;29;20200;-88
2022/01/10 16:38:24;;;;;;;31.80;20.93;;;;;;;;;;4904372;29;20215;-86
2022/01/10 16:40:54;;;;;;;36.93;20.03;;;;;;;;;;4890925;29;20215;-89
2022/01/10 16:43:22;;;;;;;29.03;18.10;;;;;;;;;;4899729;29;20247;-88
2022/01/10 16:45:51;;;;;;;20.83;14.13;;;;;;;;;;4900220;29;20211;-87
2022/01/10 16:48:20;;;;;;;25.30;19.47;;;;;;;;;;4899340;29;20279;-88
2022/01/10 16:50:53;;;;;;;29.13;21.03;;;;;;;;;;4900163;29;20214;-89
2022/01/10 16:53:21;;;;;;;30.43;21.50;;;;;;;;;;4900544;29;20215;-89
2022/01/10 16:55:49;;;;;;;29.87;16.23;;;;;;;;;;4900004;29;20244;-89
2022/01/10 16:58:18;;;;;;;31.80;23.37;;;;;;;;;;4900097;29;20239;-88
2022/01/10 17:00:48;;;;;;;29.80;21.87;;;;;;;;;;4899992;29;20313;-89
2022/01/10 17:03:17;;;;;;;35.60;22.83;;;;;;;;;;4900634;29;20314;-89
2022/01/10 17:05:46;;;;;;;32.07;21.80;;;;;;;;;;4901104;29;20262;-89
2022/01/10 17:08:19;;;;;;;33.47;25.80;;;;;;;;;;4900989;29;20248;-89
2022/01/10 17:10:49;;;;;;;27.93;21.73;;;;;;;;;;4901216;29;20252;-89
2022/01/10 17:13:17;;;;;;;32.57;24.63;;;;;;;;;;4901024;29;20211;-89
2022/01/10 17:15:46;;;;;;;33.57;20.67;;;;;;;;;;4900559;29;20203;-89
2022/01/10 17:18:14;;;;;;;35.70;25.57;;;;;;;;;;4901144;29;20247;-90
2022/01/10 17:20:45;;;;;;;28.10;19.77;;;;;;;;;;4900623;29;20196;-89
2022/01/10 17:23:13;;;;;;;36.93;24.77;;;;;;;;;;4901118;29;20294;-90
2022/01/10 17:25:43;;;;;;;26.77;18.80;;;;;;;;;;4901917;29;20212;-89
2022/01/10 17:28:11;;;;;;;33.40;25.77;;;;;;;;;;4903192;29;20244;-90
2022/01/10 17:30:40;;;;;;;37.27;28.33;;;;;;;;;;4902743;29;20242;-89
2022/01/10 17:33:09;;;;;;;35.00;30.13;;;;;;;;;;4902150;29;20243;-89
2022/01/10 17:35:38;;;;;;;17.13;13.53;;;;;;;;;;4902983;29;20199;-89
2022/01/10 17:38:07;;;;;;;43.33;30.17;;;;;;;;;;4902184;29;20232;-89
2022/01/10 17:40:35;;;;;;;28.87;21.63;;;;;;;;;;4902722;29;20240;-90
2022/01/10 17:43:05;;;;;;;29.37;25.37;;;;;;;;;;4902347;29;20262;-89
2022/01/10 17:45:33;;;;;;;30.70;23.97;;;;;;;;;;4902939;29;20402;-88
2022/01/10 17:48:02;;;;;;;36.97;28.87;;;;;;;;;;4902630;29;20235;-89
2022/01/10 17:50:33;;;;;;;41.57;29.97;;;;;;;;;;4903276;29;20241;-89
2022/01/10 17:53:02;;;;;;;40.83;33.00;;;;;;;;;;4902686;29;20200;-89
2022/01/10 17:55:32;;;;;;;39.47;30.27;;;;;;;;;;4902649;29;20207;-89
2022/01/10 17:58:01;;;;;;;34.87;27.67;;;;;;;;;;4902590;29;20223;-89
2022/01/10 18:00:32;;;;;;;47.80;32.67;;;;;;;;;;4902840;29;20239;-89
2022/01/10 18:03:00;;;;;;;38.30;30.60;;;;;;;;;;4902842;29;20256;-89
2022/01/10 18:05:30;;;;;;;48.10;36.17;;;;;;;;;;4903007;29;20214;-89
2022/01/10 18:08:12;;;;;;;37.43;28.77;;;;;;;;;;4903172;29;20218;-90
2022/01/10 18:10:41;;;;;;;32.17;22.77;;;;;;;;;;4902961;29;20208;-89
2022/01/10 18:13:09;;;;;;;40.80;30.67;;;;;;;;;;4903084;29;20207;-90
2022/01/10 18:15:39;;;;;;;37.27;21.73;;;;;;;;;;4902465;29;20214;-89
2022/01/10 18:18:08;;;;;;;39.23;29.33;;;;;;;;;;4903129;29;20207;-89
2022/01/10 18:20:37;;;;;;;48.20;29.93;;;;;;;;;;4906068;29;20243;-89
2022/01/10 18:23:06;;;;;;;47.90;34.40;;;;;;;;;;4906463;29;20271;-89
2022/01/10 18:25:34;;;;;;;37.47;26.17;;;;;;;;;;4906287;29;20228;-90
2022/01/10 18:28:02;;;;;;;45.60;32.63;;;;;;;;;;4906533;29;20207;-89
2022/01/10 18:30:31;;;;;;;42.10;34.97;;;;;;;;;;4906203;29;20240;-89
2022/01/10 18:33:01;;;;;;;47.97;30.77;;;;;;;;;;4906381;29;20266;-89
2022/01/10 18:35:29;;;;;;;38.57;26.07;;;;;;;;;;4906363;29;20211;-90
2022/01/10 18:38:00;;;;;;;36.90;30.60;;;;;;;;;;4906241;29;20238;-89
2022/01/10 18:40:28;;;;;;;49.97;29.90;;;;;;;;;;4888943;29;20209;-90
2022/01/10 18:42:57;;;;;;;45.73;34.23;;;;;;;;;;4887920;29;20217;-89
2022/01/10 18:45:25;;;;;;;29.87;19.93;;;;;;;;;;4887316;29;20267;-89
2022/01/10 18:47:53;;;;;;;42.03;31.23;;;;;;;;;;4888424;29;20214;-89
2022/01/10 18:50:23;;;;;;;40.80;30.97;;;;;;;;;;4887837;29;20256;-89
2022/01/10 18:52:52;;;;;;;42.67;32.43;;;;;;;;;;4887215;29;20234;-90
2022/01/10 18:55:20;;;;;;;37.77;24.30;;;;;;;;;;4887214;29;20207;-89
2022/01/10 18:57:49;;;;;;;24.93;14.77;;;;;;;;;;4887313;29;20227;-89
2022/01/10 19:00:17;;;;;;;33.80;23.80;;;;;;;;;;4887568;29;20230;-89
2022/01/10 19:02:46;;;;;;;41.90;28.90;;;;;;;;;;4886620;29;20235;-89
2022/01/10 19:05:19;;;;;;;50.27;31.27;;;;;;;;;;4887163;29;20392;-90
2022/01/10 19:07:51;;;;;;;45.10;33.13;;;;;;;;;;4887056;29;20219;-90
2022/01/10 19:10:20;;;;;;;49.53;30.60;;;;;;;;;;4887650;29;20204;-90
2022/01/10 19:12:49;;;;;;;45.97;29.50;;;;;;;;;;4887506;29;20222;-89
2022/01/10 19:15:18;;;;;;;41.77;27.00;;;;;;;;;;4886477;29;20222;-90
2022/01/10 19:17:46;;;;;;;34.80;25.97;;;;;;;;;;4887153;29;20223;-90
2022/01/10 19:20:15;;;;;;;25.23;14.10;;;;;;;;;;4887417;29;20220;-90
2022/01/10 19:22:43;;;;;;;19.33;13.23;;;;;;;;;;4887003;29;20316;-90
2022/01/10 19:25:14;;;;;;;35.80;27.53;;;;;;;;;;4886708;29;20232;-90
2022/01/10 19:27:42;;;;;;;29.07;21.03;;;;;;;;;;4886789;29;20203;-91
2022/01/10 19:30:11;;;;;;;49.93;31.70;;;;;;;;;;4886021;29;20241;-90
2022/01/10 19:32:39;;;;;;;39.13;27.70;;;;;;;;;;4886234;29;20279;-90
2022/01/10 19:35:08;;;;;;;43.23;28.63;;;;;;;;;;4887126;29;20231;-90
2022/01/10 19:37:37;;;;;;;45.67;26.03;;;;;;;;;;4886834;29;20283;-90
2022/01/10 19:40:07;;;;;;;40.43;30.93;;;;;;;;;;4901301;29;20247;-90
2022/01/10 19:42:37;;;;;;;44.73;24.93;;;;;;;;;;4905946;29;20231;-90
2022/01/10 19:45:05;;;;;;;45.43;32.77;;;;;;;;;;4905589;29;20254;-89
2022/01/10 19:47:34;;;;;;;42.43;25.87;;;;;;;;;;4905603;29;20240;-90
2022/01/10 19:50:03;;;;;;;23.50;14.20;;;;;;;;;;4905448;29;20207;-90
2022/01/10 19:52:31;;;;;;;49.63;33.10;;;;;;;;;;4905300;29;20272;-90
2022/01/10 19:55:00;;;;;;;39.57;22.63;;;;;;;;;;4905487;29;20212;-89
2022/01/10 19:57:32;;;;;;;43.67;27.37;;;;;;;;;;4906055;29;20220;-89
2022/01/10 20:00:02;;;;;;;52.53;34.77;;;;;;;;;;4905278;29;20199;-89
2022/01/10 20:02:31;;;;;;;42.00;30.10;;;;;;;;;;4905709;29;20210;-90
2022/01/10 20:04:59;;;;;;;44.90;30.57;;;;;;;;;;4905424;29;20234;-89
2022/01/10 20:07:28;;;;;;;44.97;28.30;;;;;;;;;;4905562;29;20220;-90
2022/01/10 20:09:56;;;;;;;40.07;30.47;;;;;;;;;;4905620;29;20203;-89
2022/01/10 20:12:25;;;;;;;40.03;31.20;;;;;;;;;;4905608;29;20212;-89
2022/01/10 20:14:53;;;;;;;44.70;28.90;;;;;;;;;;4905321;29;20202;-90
2022/01/10 20:17:23;;;;;;;45.03;30.73;;;;;;;;;;4905288;29;20203;-90
2022/01/10 20:19:51;;;;;;;41.83;25.70;;;;;;;;;;4905465;29;20216;-90
2022/01/10 20:22:20;;;;;;;46.73;32.57;;;;;;;;;;4905033;29;20262;-90
2022/01/10 20:24:49;;;;;;;53.23;35.57;;;;;;;;;;4905606;29;20234;-90
2022/01/10 20:27:19;;;;;;;35.70;25.57;;;;;;;;;;4904910;29;20234;-90
2022/01/10 20:29:48;;;;;;;44.40;28.00;;;;;;;;;;4905247;29;20216;-90
2022/01/10 20:32:16;;;;;;;33.53;23.83;;;;;;;;;;4904891;29;20240;-90
2022/01/10 20:34:46;;;;;;;40.03;24.97;;;;;;;;;;4904707;29;20208;-90
2022/01/10 20:37:14;;;;;;;44.73;23.53;;;;;;;;;;4905339;29;20219;-90
2022/01/10 20:39:43;;;;;;;31.53;20.07;;;;;;;;;;4904718;29;20223;-90
2022/01/10 20:42:11;;;;;;;42.30;31.90;;;;;;;;;;4904658;29;20212;-90
2022/01/10 20:44:40;;;;;;;46.23;30.40;;;;;;;;;;4903961;29;20258;-90
2022/01/10 20:47:09;;;;;;;37.13;25.10;;;;;;;;;;4904930;29;20239;-90
2022/01/10 20:49:37;;;;;;;46.27;35.07;;;;;;;;;;4904634;29;20226;-90
2022/01/10 20:52:07;;;;;;;30.20;16.37;;;;;;;;;;4904522;29;20274;-89
2022/01/10 20:54:36;;;;;;;52.27;30.93;;;;;;;;;;4904521;29;20230;-90
2022/01/10 20:57:04;;;;;;;43.83;29.97;;;;;;;;;;4904996;29;20204;-90
2022/01/10 20:59:33;;;;;;;49.97;31.93;;;;;;;;;;4904233;29;20203;-90
2022/01/10 21:02:03;;;;;;;42.37;29.33;;;;;;;;;;4904377;29;20298;-90
2022/01/10 21:04:31;;;;;;;51.73;30.10;;;;;;;;;;4904518;29;20235;-90
2022/01/10 21:06:59;;;;;;;49.43;30.00;;;;;;;;;;4904069;29;20237;-89
2022/01/10 21:09:29;;;;;;;39.57;24.87;;;;;;;;;;4904632;29;20223;-90
2022/01/10 21:11:58;;;;;;;49.17;33.53;;;;;;;;;;4904428;29;20234;-89
2022/01/10 21:14:27;;;;;;;47.97;27.90;;;;;;;;;;4904243;29;20266;-90
2022/01/10 21:16:56;;;;;;;50.67;34.10;;;;;;;;;;4904095;29;20238;-90
2022/01/10 21:19:25;;;;;;;43.97;27.73;;;;;;;;;;4904144;29;20249;-90
2022/01/10 21:21:53;;;;;;;52.10;36.27;;;;;;;;;;4904394;29;20235;-90
2022/01/10 21:24:22;;;;;;;28.17;17.67;;;;;;;;;;4904634;29;20224;-90
2022/01/10 21:26:52;;;;;;;40.77;25.40;;;;;;;;;;4904113;29;20231;-90
2022/01/10 21:29:20;;;;;;;46.97;28.83;;;;;;;;;;4904254;29;20202;-90
2022/01/10 21:31:48;;;;;;;43.93;32.57;;;;;;;;;;4904543;29;20214;-89
2022/01/10 21:34:18;;;;;;;47.67;30.93;;;;;;;;;;4903966;29;20234;-90
2022/01/10 21:36:46;;;;;;;54.20;34.87;;;;;;;;;;4904045;29;20263;-89
2022/01/10 21:39:16;;;;;;;45.83;29.73;;;;;;;;;;4903899;29;20207;-91
2022/01/10 21:41:44;;;;;;;42.33;27.83;;;;;;;;;;4904618;29;20243;-90
2022/01/10 21:44:14;;;;;;;39.57;27.70;;;;;;;;;;4904576;29;20204;-90
2022/01/10 21:46:43;;;;;;;40.03;25.43;;;;;;;;;;4903670;29;20252;-89
2022/01/10 21:49:12;;;;;;;37.33;24.67;;;;;;;;;;4904783;29;20236;-89
2022/01/10 21:51:40;;;;;;;34.03;26.37;;;;;;;;;;4904214;29;20261;-89
2022/01/10 21:54:09;;;;;;;37.80;26.23;;;;;;;;;;4904144;29;20217;-89
2022/01/10 21:56:37;;;;;;;37.03;25.30;;;;;;;;;;4904313;29;20232;-89
2022/01/10 21:59:27;;;;;;;44.87;30.73;;;;;;;;;;4903970;29;20266;-89
2022/01/10 22:01:56;;;;;;;38.07;23.83;;;;;;;;;;4904801;29;20217;-89
2022/01/10 22:04:24;;;;;;;37.70;26.10;;;;;;;;;;4904168;29;20258;-89
2022/01/10 22:06:53;;;;;;;32.17;22.77;;;;;;;;;;4904135;29;20277;-90
2022/01/10 22:09:22;;;;;;;31.70;20.87;;;;;;;;;;4904071;29;20231;-89
2022/01/10 22:11:50;;;;;;;35.57;24.37;;;;;;;;;;4904064;29;20212;-89
2022/01/10 22:14:19;;;;;;;34.40;23.17;;;;;;;;;;4904545;29;20218;-90
2022/01/10 22:16:48;;;;;;;31.57;19.87;;;;;;;;;;4904273;29;20224;-90
2022/01/10 22:19:17;;;;;;;34.27;25.10;;;;;;;;;;4904027;29;20241;-90
2022/01/10 22:21:45;;;;;;;39.93;24.67;;;;;;;;;;4903877;29;20273;-89
2022/01/10 22:24:16;;;;;;;34.63;25.33;;;;;;;;;;4904600;29;20217;-89
2022/01/10 22:26:44;;;;;;;38.47;29.57;;;;;;;;;;4904801;29;20231;-89
2022/01/10 22:29:13;;;;;;;26.67;19.67;;;;;;;;;;4904404;29;20244;-89
2022/01/10 22:31:41;;;;;;;34.73;24.80;;;;;;;;;;4904304;29;20211;-89
2022/01/10 22:34:11;;;;;;;36.33;25.90;;;;;;;;;;4904815;29;20273;-90
2022/01/10 22:36:39;;;;;;;41.80;28.10;;;;;;;;;;4904358;29;20212;-89
2022/01/10 22:39:08;;;;;;;42.87;24.00;;;;;;;;;;4904533;29;20209;-90
2022/01/10 22:41:36;;;;;;;41.87;32.60;;;;;;;;;;4903552;29;20220;-89